Time;durP1;ratioP1;P1;durP2;ratioP2;P2;SDS_P1;SDS_P2;PMS_P1;PMS_P2;Temp;Humidity;BMP_temperature;BMP_pressure;BME280_temperature;BME280_humidity;BME280_pressure;Samples;Min_cycle;Max_cycle;Signal;HPM_P1;HPM_P2
2021/09/05 00:00:52;;;;;;;11.02;8.70;;;;;;;16.31;100.00;100489.69;4993505;28;20097;-69
2021/09/05 00:03:36;;;;;;;14.57;9.57;;;;;;;16.32;100.00;100496.72;4993455;28;20184;-69
2021/09/05 00:06:20;;;;;;;10.63;8.77;;;;;;;16.29;100.00;100491.69;4993587;28;20100;-69
2021/09/05 00:09:04;;;;;;;11.88;9.43;;;;;;;16.26;100.00;100489.34;4993051;28;20088;-69
2021/09/05 00:11:48;;;;;;;17.50;9.88;;;;;;;16.26;100.00;100492.03;4994178;28;20081;-70
2021/09/05 00:14:32;;;;;;;13.18;9.80;;;;;;;16.25;100.00;100490.38;4993959;28;20466;-70
2021/09/05 00:17:16;;;;;;;15.68;10.32;;;;;;;16.25;100.00;100490.38;4993411;28;20089;-69
2021/09/05 00:20:00;;;;;;;18.25;10.75;;;;;;;16.23;100.00;100486.16;4993977;28;20149;-68
2021/09/05 00:22:47;;;;;;;15.07;10.95;;;;;;;16.24;100.00;100488.69;4993184;28;20057;-70
2021/09/05 00:25:31;;;;;;;15.82;10.80;;;;;;;16.23;100.00;100489.72;4992944;28;20096;-69
2021/09/05 00:28:15;;;;;;;17.60;10.70;;;;;;;16.26;100.00;100485.84;4992834;28;20412;-69
2021/09/05 00:31:00;;;;;;;15.05;10.00;;;;;;;16.30;100.00;100488.00;4993378;28;20188;-69
2021/09/05 00:33:45;;;;;;;15.25;10.02;;;;;;;16.31;100.00;100489.69;4992898;28;20181;-69
2021/09/05 00:36:29;;;;;;;13.55;9.65;;;;;;;16.29;100.00;100494.38;4992908;28;20065;-69
2021/09/05 00:39:13;;;;;;;14.52;9.77;;;;;;;16.32;100.00;100493.19;4993675;28;20125;-69
2021/09/05 00:41:56;;;;;;;11.02;9.15;;;;;;;16.31;100.00;100500.44;4993963;28;20552;-69
2021/09/05 00:44:40;;;;;;;12.55;9.13;;;;;;;16.27;100.00;100493.72;4992670;28;20148;-69
2021/09/05 00:47:24;;;;;;;15.13;9.70;;;;;;;16.25;100.00;100497.59;4992855;28;20045;-69
2021/09/05 00:50:10;;;;;;;14.23;10.13;;;;;;;16.24;100.00;100502.13;4992896;28;20065;-69
2021/09/05 00:52:55;;;;;;;12.90;9.70;;;;;;;16.22;100.00;100504.19;4992863;28;20050;-69
2021/09/05 00:55:39;;;;;;;16.45;9.95;;;;;;;16.24;100.00;100504.84;4992804;28;20089;-68
2021/09/05 00:58:23;;;;;;;17.02;9.80;;;;;;;16.26;100.00;100507.34;4992379;28;20101;-69
2021/09/05 01:01:08;;;;;;;12.85;10.18;;;;;;;16.26;100.00;100501.97;4993808;28;20053;-69
2021/09/05 01:03:53;;;;;;;12.63;9.88;;;;;;;16.32;100.00;100506.63;4992756;28;20524;-69
2021/09/05 01:06:40;;;;;;;13.32;9.40;;;;;;;16.32;100.00;100510.19;4992734;28;20049;-69
2021/09/05 01:09:25;;;;;;;11.18;8.35;;;;;;;16.31;100.00;100500.44;4992657;28;20049;-69
2021/09/05 01:12:09;;;;;;;12.98;9.65;;;;;;;16.29;100.00;100497.06;4992523;28;20417;-69
2021/09/05 01:14:53;;;;;;;13.00;9.88;;;;;;;16.27;100.00;100501.78;4978975;28;20108;-69
2021/09/05 01:17:37;;;;;;;11.50;9.68;;;;;;;16.22;100.00;100501.47;4993474;28;20061;-69
2021/09/05 01:20:21;;;;;;;14.07;9.50;;;;;;;16.19;100.00;100496.44;4992375;28;20184;-69
2021/09/05 01:23:05;;;;;;;13.52;9.85;;;;;;;16.17;100.00;100498.47;4992629;28;20100;-69
2021/09/05 01:25:49;;;;;;;12.68;9.40;;;;;;;16.15;100.00;100499.66;4992602;28;20049;-69
2021/09/05 01:28:33;;;;;;;13.80;11.23;;;;;;;16.12;100.00;100500.84;4992507;28;20096;-68
2021/09/05 01:31:18;;;;;;;15.68;10.63;;;;;;;16.10;100.00;100500.19;4992676;28;20049;-69
2021/09/05 01:34:02;;;;;;;13.38;10.13;;;;;;;16.04;100.00;100503.56;4992335;28;20108;-68
2021/09/05 01:36:47;;;;;;;12.85;9.73;;;;;;;15.99;100.00;100508.59;4992633;28;20120;-69
2021/09/05 01:39:31;;;;;;;11.90;9.55;;;;;;;15.94;100.00;100507.44;4992124;28;20520;-69
2021/09/05 01:42:15;;;;;;;13.63;9.70;;;;;;;15.88;100.00;100511.66;4992166;28;20076;-68
2021/09/05 01:44:59;;;;;;;17.65;10.52;;;;;;;15.85;100.00;100519.25;4992641;28;20500;-69
2021/09/05 01:47:43;;;;;;;14.98;10.15;;;;;;;15.79;100.00;100523.47;4996114;28;20112;-69
2021/09/05 01:50:27;;;;;;;11.35;8.98;;;;;;;15.74;100.00;100523.13;4995943;28;20069;-69
2021/09/05 01:53:11;;;;;;;13.88;9.95;;;;;;;15.72;100.00;100524.31;4995895;28;20089;-69
2021/09/05 01:55:55;;;;;;;15.43;10.52;;;;;;;15.69;100.00;100525.50;4995554;28;20135;-69
2021/09/05 01:58:39;;;;;;;14.95;12.07;;;;;;;15.69;100.00;100530.88;4995678;28;20079;-69
2021/09/05 02:01:24;;;;;;;15.20;12.32;;;;;;;15.73;100.00;100529.53;4995687;28;20052;-69
2021/09/05 02:04:08;;;;;;;17.05;11.68;;;;;;;15.78;100.00;100535.22;4995469;28;20520;-69
2021/09/05 02:06:52;;;;;;;20.25;12.57;;;;;;;15.84;100.00;100531.84;4996279;28;20049;-69
2021/09/05 02:09:36;;;;;;;17.63;12.63;;;;;;;15.87;100.00;100534.19;4996510;28;20045;-69
2021/09/05 02:12:21;;;;;;;20.85;14.18;;;;;;;15.88;100.00;100535.84;4995379;28;20121;-69
2021/09/05 02:15:06;;;;;;;16.67;12.52;;;;;;;15.91;100.00;100538.22;4995442;28;20141;-69
2021/09/05 02:17:50;;;;;;;18.30;13.93;;;;;;;15.95;100.00;100546.78;4995182;28;20440;-69
2021/09/05 02:20:34;;;;;;;19.88;13.52;;;;;;;15.96;100.00;100543.09;4995382;28;20053;-69
2021/09/05 02:23:18;;;;;;;;;;;;;;;15.96;100.00;100546.59;4995494;28;20061;-69
2021/09/05 02:26:02;;;;;;;16.40;12.77;;;;;;;15.94;100.00;100534.34;4994988;28;19920;-69
2021/09/05 02:28:46;;;;;;;16.73;12.40;;;;;;;15.91;100.00;100540.91;4995213;28;20154;-69
2021/09/05 02:31:30;;;;;;;18.95;13.20;;;;;;;15.90;100.00;100539.25;4995090;28;20508;-69
2021/09/05 02:34:13;;;;;;;17.30;12.20;;;;;;;15.88;100.00;100540.41;4995219;28;20527;-69
2021/09/05 02:36:58;;;;;;;18.98;13.75;;;;;;;15.86;100.00;100543.25;4994756;28;20081;-68
2021/09/05 02:39:42;;;;;;;17.58;13.02;;;;;;;15.84;100.00;100550.66;4995035;28;20132;-69
2021/09/05 02:42:26;;;;;;;22.30;14.25;;;;;;;15.83;100.00;100543.63;4995017;28;20072;-69
2021/09/05 02:45:10;;;;;;;20.63;14.25;;;;;;;15.82;100.00;100550.00;4995658;28;20088;-69
2021/09/05 02:47:55;;;;;;;21.35;13.40;;;;;;;15.82;100.00;100547.31;4994705;28;20077;-69
2021/09/05 02:50:39;;;;;;;18.38;12.77;;;;;;;15.79;100.00;100547.66;4994622;28;20052;-69
2021/09/05 02:53:23;;;;;;;19.52;13.50;;;;;;;15.77;100.00;100560.41;4994750;28;20048;-69
2021/09/05 02:56:07;;;;;;;16.65;11.77;;;;;;;15.76;100.00;100552.53;4994611;28;20065;-69
2021/09/05 02:58:51;;;;;;;16.85;12.10;;;;;;;15.69;100.00;100554.22;4996048;28;20111;-68
2021/09/05 03:01:34;;;;;;;18.55;12.27;;;;;;;15.68;100.00;100548.00;4995553;28;20053;-69
2021/09/05 03:04:18;;;;;;;20.58;14.55;;;;;;;15.68;100.00;100556.06;4994538;28;20129;-69
2021/09/05 03:07:03;;;;;;;18.25;13.85;;;;;;;15.67;100.00;100554.38;4994179;28;20420;-69
2021/09/05 03:09:47;;;;;;;21.08;14.15;;;;;;;15.66;100.00;100550.00;4994496;28;20100;-69
2021/09/05 03:12:30;;;;;;;17.65;13.77;;;;;;;15.63;100.00;100540.63;4994402;28;20061;-69
2021/09/05 03:15:14;;;;;;;23.10;13.55;;;;;;;15.64;100.00;100543.16;4994570;28;20053;-69
2021/09/05 03:17:58;;;;;;;17.02;13.70;;;;;;;15.64;100.00;100549.34;4994124;28;20053;-69
2021/09/05 03:20:42;;;;;;;17.98;13.90;;;;;;;15.70;100.00;100551.38;4994267;28;20053;-69
2021/09/05 03:23:26;;;;;;;19.20;12.90;;;;;;;15.73;100.00;100553.72;4993932;28;20052;-69
2021/09/05 03:26:10;;;;;;;17.40;13.27;;;;;;;15.77;100.00;100555.03;4994372;28;20122;-69
2021/09/05 03:28:55;;;;;;;19.92;13.88;;;;;;;15.81;100.00;100553.72;4994942;28;20088;-69
2021/09/05 03:31:39;;;;;;;19.45;14.45;;;;;;;15.84;100.00;100558.72;4994982;28;20057;-69
2021/09/05 03:34:24;;;;;;;18.00;14.18;;;;;;;15.89;100.00;100552.84;4994029;28;20101;-69
2021/09/05 03:37:09;;;;;;;19.98;14.52;;;;;;;15.94;100.00;100563.91;4993715;28;20212;-69
2021/09/05 03:39:53;;;;;;;17.52;13.63;;;;;;;16.01;100.00;100563.09;4993871;28;20049;-69
2021/09/05 03:42:37;;;;;;;15.57;12.93;;;;;;;16.06;100.00;100565.25;4993768;28;20057;-69
2021/09/05 03:45:21;;;;;;;22.38;13.90;;;;;;;16.08;100.00;100564.03;4993773;28;20057;-69
2021/09/05 03:48:05;;;;;;;19.17;14.05;;;;;;;16.10;100.00;100563.88;4994452;28;20049;-69
2021/09/05 03:50:49;;;;;;;20.13;13.48;;;;;;;16.15;100.00;100558.84;4993607;28;20137;-69
2021/09/05 03:53:33;;;;;;;18.10;13.23;;;;;;;16.18;100.00;100562.00;4994724;28;20048;-69
2021/09/05 03:56:18;;;;;;;16.73;12.23;;;;;;;16.19;100.00;100561.00;4994252;28;20054;-68
2021/09/05 03:59:03;;;;;;;18.50;12.27;;;;;;;16.20;100.00;100556.47;4994356;28;20053;-69
2021/09/05 04:01:47;;;;;;;19.20;13.35;;;;;;;16.17;100.00;100567.56;4994517;28;20057;-69
2021/09/05 04:04:31;;;;;;;15.90;12.90;;;;;;;16.16;100.00;100569.41;4993496;28;20049;-69
2021/09/05 04:07:19;;;;;;;18.88;13.45;;;;;;;16.15;100.00;100565.03;4993295;28;20093;-69
2021/09/05 04:10:10;;;;;;;19.30;13.75;;;;;;;16.12;100.00;100570.78;4994072;28;20105;-69
2021/09/05 04:12:54;;;;;;;17.67;13.55;;;;;;;16.05;100.00;100575.16;4993168;28;20056;-69
2021/09/05 04:15:38;;;;;;;17.48;13.07;;;;;;;16.00;100.00;100579.38;4993085;28;20079;-69
2021/09/05 04:18:21;;;;;;;27.50;13.32;;;;;;;15.97;100.00;100577.03;4993121;28;20050;-69
2021/09/05 04:21:06;;;;;;;19.10;13.45;;;;;;;15.91;100.00;100578.56;4979518;28;20053;-69
2021/09/05 04:23:49;;;;;;;21.50;14.18;;;;;;;15.85;100.00;100578.41;4993201;28;20405;-69
2021/09/05 04:26:33;;;;;;;21.10;13.95;;;;;;;15.81;100.00;100582.44;4992942;28;20042;-69
2021/09/05 04:29:17;;;;;;;23.67;14.38;;;;;;;15.75;100.00;100589.31;4992845;28;20096;-69
2021/09/05 04:32:01;;;;;;;18.60;13.82;;;;;;;15.74;100.00;100593.03;4993084;28;20124;-69
2021/09/05 04:34:46;;;;;;;20.83;14.27;;;;;;;15.72;100.00;100597.72;4993896;28;20057;-69
2021/09/05 04:37:30;;;;;;;21.13;14.30;;;;;;;15.70;100.00;100597.06;4992890;28;20053;-69
2021/09/05 04:40:14;;;;;;;22.10;14.88;;;;;;;15.70;100.00;100601.59;4992983;28;20104;-69
2021/09/05 04:42:58;;;;;;;23.77;15.02;;;;;;;15.68;100.00;100601.75;4993673;28;20141;-69
2021/09/05 04:45:42;;;;;;;22.45;15.65;;;;;;;15.67;100.00;100600.06;4992693;28;20109;-68
2021/09/05 04:48:26;;;;;;;27.35;15.38;;;;;;;15.68;100.00;100607.13;4992728;28;20069;-69
2021/09/05 04:51:10;;;;;;;20.63;15.23;;;;;;;15.69;100.00;100603.47;4993922;28;20057;-69
2021/09/05 04:53:54;;;;;;;24.75;15.95;;;;;;;15.73;100.00;100618.22;4992893;28;20053;-69
2021/09/05 04:56:38;;;;;;;21.65;15.82;;;;;;;15.74;100.00;100611.84;4992826;28;20413;-69
2021/09/05 04:59:22;;;;;;;;;;;;;;;15.75;100.00;100618.88;4979396;28;20089;-69
2021/09/05 05:02:06;;;;;;;18.08;14.45;;;;;;;15.76;100.00;100620.56;4993548;28;19964;-70
2021/09/05 05:04:50;;;;;;;21.13;14.70;;;;;;;15.79;100.00;100616.72;4993110;28;20776;-69
2021/09/05 05:07:34;;;;;;;22.30;16.15;;;;;;;15.82;100.00;100627.97;4992466;28;20045;-69
2021/09/05 05:10:18;;;;;;;20.90;15.35;;;;;;;15.83;100.00;100628.78;4993795;28;20137;-69
2021/09/05 05:13:02;;;;;;;24.75;15.45;;;;;;;15.85;100.00;100627.63;4992754;28;20129;-69
2021/09/05 05:15:46;;;;;;;20.98;15.57;;;;;;;15.85;100.00;100629.50;4992753;28;20049;-69
2021/09/05 05:18:30;;;;;;;19.40;15.02;;;;;;;15.85;100.00;100638.38;4992371;28;20054;-69
2021/09/05 05:21:14;;;;;;;21.83;15.63;;;;;;;15.86;100.00;100637.38;4995747;28;20100;-69
2021/09/05 05:23:59;;;;;;;22.10;14.75;;;;;;;15.86;100.00;100648.13;4996201;28;20053;-69
2021/09/05 05:26:43;;;;;;;18.38;13.27;;;;;;;15.86;100.00;100644.59;4996373;28;20089;-69
2021/09/05 05:29:27;;;;;;;19.95;14.45;;;;;;;15.86;100.00;100641.91;4996996;28;20068;-69
2021/09/05 05:32:11;;;;;;;19.70;15.05;;;;;;;15.86;100.00;100655.38;4996232;28;20054;-69
2021/09/05 05:34:55;;;;;;;20.88;15.73;;;;;;;15.86;100.00;100650.00;4996951;28;20516;-69
2021/09/05 05:37:38;;;;;;;20.77;15.52;;;;;;;15.88;100.00;100656.03;4995587;28;20097;-69
2021/09/05 05:40:24;;;;;;;24.42;17.17;;;;;;;15.95;100.00;100659.72;4996649;28;20057;-69
2021/09/05 05:43:08;;;;;;;23.60;15.88;;;;;;;16.01;100.00;100659.88;4995744;28;20052;-69
2021/09/05 05:46:02;;;;;;;21.35;15.63;;;;;;;16.03;100.00;100662.38;4998259;28;20116;-68
2021/09/05 05:48:46;;;;;;;21.90;15.63;;;;;;;16.09;100.00;100665.25;4994747;28;20048;-69
2021/09/05 05:51:30;;;;;;;23.20;15.48;;;;;;;16.16;100.00;100658.19;4995307;28;20267;-69
2021/09/05 05:54:17;;;;;;;21.65;15.50;;;;;;;16.25;100.00;100653.63;4996185;28;20096;-69
2021/09/05 05:57:01;;;;;;;23.23;14.95;;;;;;;16.23;100.00;100664.56;4994937;28;20069;-68
2021/09/05 05:59:44;;;;;;;18.55;14.65;;;;;;;16.24;100.00;100654.63;4995636;28;20201;-69
2021/09/05 06:02:28;;;;;;;21.52;15.15;;;;;;;16.24;100.00;100655.47;4995095;28;20049;-69
2021/09/05 06:05:13;;;;;;;23.80;14.93;;;;;;;16.25;100.00;100656.31;4995381;28;20113;-69
2021/09/05 06:07:57;;;;;;;20.20;15.50;;;;;;;16.25;100.00;100656.31;4995132;28;20053;-68
2021/09/05 06:10:41;;;;;;;19.75;14.80;;;;;;;16.31;100.00;100664.56;4995236;28;20133;-70
2021/09/05 06:13:25;;;;;;;20.20;15.68;;;;;;;16.38;100.00;100665.56;4995110;28;20060;-69
2021/09/05 06:16:09;;;;;;;21.00;14.75;;;;;;;16.42;100.00;100669.63;4995018;28;20052;-69
2021/09/05 06:18:53;;;;;;;19.67;14.23;;;;;;;16.49;100.00;100670.56;4994700;28;20471;-68
2021/09/05 06:21:37;;;;;;;18.83;14.38;;;;;;;16.51;100.00;100673.97;4995969;28;20096;-69
2021/09/05 06:24:21;;;;;;;25.88;15.27;;;;;;;16.56;100.00;100665.38;4995679;28;20424;-69
2021/09/05 06:27:05;;;;;;;23.33;15.30;;;;;;;16.67;100.00;100668.50;4995975;28;20049;-69
2021/09/05 06:29:48;;;;;;;17.88;13.88;;;;;;;16.78;100.00;100672.69;4980859;28;20100;-69
2021/09/05 06:32:32;;;;;;;22.15;14.60;;;;;;;16.84;100.00;100670.16;4994388;28;20460;-69
2021/09/05 06:35:16;;;;;;;22.00;16.25;;;;;;;16.91;100.00;100671.09;4995688;28;20103;-68
2021/09/05 06:38:00;;;;;;;20.55;14.38;;;;;;;17.03;100.00;100675.13;4995379;28;20052;-69
2021/09/05 06:40:44;;;;;;;18.20;13.63;;;;;;;17.14;100.00;100680.09;4994655;28;20096;-70
2021/09/05 06:43:28;;;;;;;18.38;12.90;;;;;;;17.25;100.00;100685.09;4994398;28;20049;-70
2021/09/05 06:46:13;;;;;;;18.13;12.30;;;;;;;17.34;100.00;100689.44;4980521;28;20049;-70
2021/09/05 06:48:57;;;;;;;20.55;12.60;;;;;;;17.49;100.00;100695.75;4994251;28;20100;-69
2021/09/05 06:51:40;;;;;;;16.13;12.23;;;;;;;17.62;100.00;100696.00;4994449;28;20559;-69
2021/09/05 06:54:24;;;;;;;20.58;13.15;;;;;;;17.83;100.00;100692.66;4994363;28;20069;-69
2021/09/05 06:57:08;;;;;;;18.65;12.52;;;;;;;18.02;100.00;100695.69;4994955;28;20092;-69
2021/09/05 06:59:52;;;;;;;15.52;11.75;;;;;;;18.16;99.60;100694.91;4994202;28;20145;-69
2021/09/05 07:02:36;;;;;;;15.05;10.25;;;;;;;18.28;98.47;100696.16;4995138;28;20045;-69
2021/09/05 07:05:20;;;;;;;17.13;11.35;;;;;;;18.32;98.11;100692.06;4994922;28;20100;-69
2021/09/05 07:08:05;;;;;;;14.65;10.68;;;;;;;18.38;96.43;100693.19;4994063;28;20068;-69
2021/09/05 07:10:48;;;;;;;14.05;9.55;;;;;;;18.47;96.00;100701.06;4993913;28;20077;-68
2021/09/05 07:13:33;;;;;;;13.38;10.23;;;;;;;18.59;94.86;100705.78;4994773;28;20060;-67
2021/09/05 07:16:16;;;;;;;15.52;10.55;;;;;;;18.72;92.66;100702.47;4993609;28;20068;-67
2021/09/05 07:19:00;;;;;;;16.23;10.73;;;;;;;18.87;90.80;100708.72;4994826;28;20105;-67
2021/09/05 07:21:44;;;;;;;13.48;10.93;;;;;;;18.96;90.05;100711.13;4994670;28;20138;-67
2021/09/05 07:24:28;;;;;;;14.93;10.35;;;;;;;19.06;89.31;100718.94;4994357;28;20092;-68
2021/09/05 07:27:12;;;;;;;15.18;10.00;;;;;;;19.24;87.06;100719.41;4993672;28;20416;-68
2021/09/05 07:29:56;;;;;;;;;;;;;;;19.38;86.46;100722.09;4994954;28;20077;-68
2021/09/05 07:32:41;;;;;;;16.37;10.47;;;;;;;19.66;85.14;100716.78;4993691;28;20363;-69
2021/09/05 07:35:25;;;;;;;19.67;10.82;;;;;;;19.93;82.01;100729.56;4979820;28;20299;-68
2021/09/05 07:38:09;;;;;;;19.70;10.55;;;;;;;20.21;80.44;100728.63;4993078;28;20101;-68
2021/09/05 07:40:53;;;;;;;14.63;8.80;;;;;;;20.26;78.81;100725.34;4994019;28;20045;-68
2021/09/05 07:43:37;;;;;;;11.68;9.52;;;;;;;20.52;78.80;100731.78;4992436;28;20061;-68
2021/09/05 07:46:21;;;;;;;12.10;9.35;;;;;;;20.79;76.95;100727.41;4993284;28;20060;-68
2021/09/05 07:49:05;;;;;;;16.15;9.52;;;;;;;20.95;76.24;100725.22;4993036;28;20543;-68
2021/09/05 07:51:49;;;;;;;11.55;9.23;;;;;;;21.12;74.26;100740.16;4994141;28;20072;-68
2021/09/05 07:54:32;;;;;;;;;;;;;;;21.16;74.23;100729.75;4994714;28;20508;-68
2021/09/05 07:57:17;;;;;;;15.27;10.47;;;;;;;21.19;73.78;100725.56;4992913;28;19939;-68
2021/09/05 08:00:00;;;;;;;15.48;9.63;;;;;;;21.07;74.24;100730.94;4994427;28;20338;-67
2021/09/05 08:02:44;;;;;;;12.27;9.32;;;;;;;21.00;74.96;100724.63;4993196;28;20112;-68
2021/09/05 08:05:28;;;;;;;12.93;9.90;;;;;;;20.87;74.66;100722.72;4992869;28;20104;-68
2021/09/05 08:08:12;;;;;;;13.75;9.85;;;;;;;20.80;75.62;100729.06;4992956;28;20041;-68
2021/09/05 08:10:56;;;;;;;13.60;9.40;;;;;;;20.73;76.41;100728.22;4993281;28;20149;-68
2021/09/05 08:13:40;;;;;;;;;;;;;;;20.73;77.60;100729.03;4993029;28;20141;-68
2021/09/05 08:16:24;;;;;;;13.47;10.23;;;;;;;20.78;77.39;100736.56;4993686;28;19945;-67
2021/09/05 08:19:08;;;;;;;;;;;;;;;20.72;76.29;100751.75;4993067;28;20409;-67
2021/09/05 08:21:52;;;;;;;18.35;11.75;;;;;;;20.87;76.54;100751.66;4979039;28;20321;-67
2021/09/05 08:24:36;;;;;;;12.82;10.15;;;;;;;21.11;75.23;100753.91;4993569;28;20188;-67
2021/09/05 08:27:19;;;;;;;13.90;10.60;;;;;;;21.34;73.67;100755.28;4993406;28;20129;-68
2021/09/05 08:30:04;;;;;;;;;;;;;;;21.63;72.03;100754.97;4992971;28;20429;-68
2021/09/05 08:32:47;;;;;;;13.70;9.73;;;;;;;21.92;69.90;100755.53;4993931;28;19928;-68
2021/09/05 08:35:31;;;;;;;12.68;10.02;;;;;;;22.14;69.39;100762.47;4993501;28;20517;-68
2021/09/05 08:38:15;;;;;;;12.68;9.13;;;;;;;22.37;68.24;100762.91;4992362;28;20050;-68
2021/09/05 08:41:00;;;;;;;14.25;10.48;;;;;;;22.52;67.38;100763.53;4993701;28;20048;-68
2021/09/05 08:43:44;;;;;;;13.23;9.25;;;;;;;22.62;67.57;100758.53;4993005;28;20041;-68
2021/09/05 08:46:29;;;;;;;15.00;9.65;;;;;;;22.65;67.80;100766.28;4992521;28;20088;-68
2021/09/05 08:49:17;;;;;;;11.57;9.38;;;;;;;22.84;66.23;100773.56;4992120;28;20204;-69
2021/09/05 08:52:03;;;;;;;12.07;9.25;;;;;;;22.98;66.80;100758.91;4992443;28;20552;-68
2021/09/05 08:54:47;;;;;;;9.13;8.20;;;;;;;23.10;65.01;100756.34;4995026;28;20101;-68
2021/09/05 08:57:31;;;;;;;10.75;9.15;;;;;;;23.18;64.21;100770.63;4996081;28;20057;-68
2021/09/05 09:00:15;;;;;;;;;;;;;;;23.21;65.39;100762.00;4997006;28;20084;-67
2021/09/05 09:02:59;;;;;;;11.73;9.27;;;;;;;23.18;64.05;100762.44;4997333;28;19920;-68
2021/09/05 09:05:44;;;;;;;13.02;9.00;;;;;;;23.12;64.01;100765.97;4996530;28;20056;-68
2021/09/05 09:08:28;;;;;;;10.30;7.97;;;;;;;23.16;64.47;100761.84;4996937;28;20042;-68
2021/09/05 09:11:12;;;;;;;11.13;8.32;;;;;;;23.36;64.29;100759.88;4996096;28;20169;-68
2021/09/05 09:13:56;;;;;;;;;;;;;;;23.44;63.29;100759.63;5051471;22;20064;-65
2021/09/05 09:16:41;;;;;;;12.85;8.90;;;;;;;23.38;63.32;100765.09;5041045;28;20054;-62
2021/09/05 09:19:27;;;;;;;11.75;10.55;;;;;;;23.39;63.16;100769.50;5041020;28;20106;-65
2021/09/05 09:22:18;;;;;;;14.77;10.07;;;;;;;23.24;63.39;100760.75;5026834;28;20047;-65
2021/09/05 09:25:02;;;;;;;14.18;8.57;;;;;;;23.21;64.06;100759.28;5020782;28;20518;-64
2021/09/05 09:27:47;;;;;;;15.13;8.07;;;;;;;23.23;64.19;100762.63;5007386;28;20087;-65
2021/09/05 09:30:34;;;;;;;;;;;;;;;23.26;64.02;100758.66;5021414;28;20048;-65
2021/09/05 09:33:20;;;;;;;10.05;7.72;;;;;;;23.32;63.18;100755.91;5048741;28;20390;-64
2021/09/05 09:36:04;;;;;;;11.18;8.60;;;;;;;23.41;64.15;100749.19;5035821;28;20049;-65
2021/09/05 09:39:07;;;;;;;13.52;8.35;;;;;;;23.61;63.65;100754.53;5034731;28;20040;-65
2021/09/05 09:41:51;;;;;;;11.88;8.65;;;;;;;23.66;64.14;100747.38;5021016;28;20455;-62
2021/09/05 09:44:35;;;;;;;11.70;8.13;;;;;;;23.78;63.43;100751.09;5034405;28;20056;-64
2021/09/05 09:47:18;;;;;;;18.52;11.13;;;;;;;23.87;62.71;100749.84;5034623;28;20408;-64
2021/09/05 09:50:02;;;;;;;25.77;20.70;;;;;;;24.07;62.77;100750.53;5034677;28;20360;-64
2021/09/05 09:52:46;;;;;;;20.30;13.57;;;;;;;24.22;61.00;100748.34;5006528;28;20179;-65
2021/09/05 09:55:30;;;;;;;15.27;10.48;;;;;;;24.29;61.35;100743.69;5020313;28;20056;-64
2021/09/05 09:58:14;;;;;;;;;;;;;;;24.38;60.53;100743.19;5034744;28;20048;-64
2021/09/05 10:00:58;;;;;;;14.30;11.52;;;;;;;24.53;60.49;100745.56;5034375;28;19919;-65
2021/09/05 10:03:43;;;;;;;18.83;13.77;;;;;;;24.68;59.98;100740.63;5006211;28;20052;-64
2021/09/05 10:06:29;;;;;;;17.63;13.00;;;;;;;24.74;59.28;100737.88;5033272;28;20519;-65
2021/09/05 10:09:14;;;;;;;14.73;10.77;;;;;;;24.89;59.94;100740.25;5033879;28;20416;-65
2021/09/05 10:11:57;;;;;;;;;;;;;;;24.92;59.27;100735.16;5020570;28;20056;-64
2021/09/05 10:14:44;;;;;;;26.58;19.20;;;;;;;24.91;59.33;100732.66;5047812;28;19920;-65
2021/09/05 10:17:29;;;;;;;15.73;13.82;;;;;;;25.02;58.43;100732.72;5006154;28;20051;-65
2021/09/05 10:20:15;;;;;;;65.25;54.08;;;;;;;25.17;59.75;100726.91;5034169;28;20510;-67
2021/09/05 10:23:04;;;;;;;39.72;31.85;;;;;;;25.31;59.28;100728.47;5034126;28;20044;-67
2021/09/05 10:25:52;;;;;;;37.97;30.73;;;;;;;25.42;59.03;100723.06;5019892;28;20072;-66
2021/09/05 10:28:37;;;;;;;25.52;22.73;;;;;;;25.55;58.23;100730.25;5019645;28;20044;-68
2021/09/05 10:31:27;;;;;;;31.63;23.95;;;;;;;25.65;59.06;100730.53;5020124;28;20067;-67
2021/09/05 10:34:30;;;;;;;16.52;10.77;;;;;;;25.74;59.00;100729.16;5035188;28;20091;-63
2021/09/05 10:37:14;;;;;;;19.92;14.45;;;;;;;25.79;59.50;100727.41;5019840;28;20048;-67
2021/09/05 10:40:08;;;;;;;;;;;;;;;25.87;58.69;100734.47;5020754;28;20099;-67
2021/09/05 10:42:54;;;;;;;26.15;20.48;;;;;;;25.91;58.93;100730.19;5048172;28;19927;-66
2021/09/05 10:45:40;;;;;;;18.50;13.07;;;;;;;26.00;57.40;100729.63;5020351;28;20099;-66
2021/09/05 10:48:37;;;;;;;15.50;12.40;;;;;;;26.00;56.72;100728.78;5020227;28;20131;-68
2021/09/05 10:51:23;;;;;;;14.23;11.60;;;;;;;26.09;57.53;100733.72;5020150;28;20056;-67
2021/09/05 10:54:26;;;;;;;18.08;13.63;;;;;;;26.13;57.54;100728.63;5033767;28;20135;-66
2021/09/05 10:57:11;;;;;;;;;;;;;;;26.18;56.62;100731.47;5020259;28;20421;-67
2021/09/05 11:00:07;;;;;;;15.52;13.27;;;;;;;26.23;57.71;100728.88;5034277;28;19920;-66
2021/09/05 11:03:09;;;;;;;14.77;12.13;;;;;;;26.36;56.70;100717.72;5033619;28;20419;-66
2021/09/05 11:06:40;;;;;;;10.80;9.40;;;;;;;26.41;54.48;100720.56;5033855;28;20052;-67
2021/09/05 11:09:24;;;;;;;12.50;9.65;;;;;;;26.56;55.26;100723.72;5014742;28;20471;-66
2021/09/05 11:12:14;;;;;;;;;;;;;;;26.53;53.87;100722.28;5034893;28;20577;-67
2021/09/05 11:14:59;;;;;;;14.68;12.00;;;;;;;26.70;54.60;100720.53;5033629;28;19962;-67
2021/09/05 11:17:54;;;;;;;13.38;9.90;;;;;;;26.77;54.08;100718.47;5004960;28;20140;-68
2021/09/05 11:20:40;;;;;;;16.77;8.77;;;;;;;26.87;54.54;100721.44;5019467;28;20535;-68
2021/09/05 11:23:24;;;;;;;14.82;9.95;;;;;;;26.92;53.60;100712.53;5019323;28;20047;-67
2021/09/05 11:26:08;;;;;;;10.98;9.20;;;;;;;27.02;52.89;100719.88;5034375;28;20083;-66
2021/09/05 11:28:52;;;;;;;27.10;21.00;;;;;;;27.10;53.26;100715.97;5019195;28;20098;-69
2021/09/05 11:31:46;;;;;;;10.18;9.18;;;;;;;27.18;51.59;100713.72;5033111;28;20423;-72
2021/09/05 11:34:30;;;;;;;15.80;9.48;;;;;;;27.32;51.61;100711.56;5019465;28;20099;-72
2021/09/05 11:37:25;;;;;;;10.25;9.15;;;;;;;27.32;51.50;100715.09;5033108;28;20510;-73
2021/09/05 11:40:14;;;;;;;14.23;10.07;;;;;;;27.53;51.34;100716.38;5032870;28;20118;-70
2021/09/05 11:42:58;;;;;;;13.68;8.90;;;;;;;27.53;51.29;100711.69;5032943;28;20048;-72
2021/09/05 11:45:43;;;;;;;;;;;;;;;27.48;50.50;100708.88;5019721;28;20084;-72
2021/09/05 11:48:28;;;;;;;11.90;8.93;;;;;;;27.56;51.06;100711.25;5032683;28;19923;-70
2021/09/05 11:51:12;;;;;;;12.95;9.75;;;;;;;27.69;50.82;100710.09;5032984;28;20051;-71
2021/09/05 11:54:05;;;;;;;11.82;8.50;;;;;;;27.69;50.20;100712.84;5032643;28;20095;-73
2021/09/05 11:56:49;;;;;;;9.30;7.88;;;;;;;27.81;50.55;100717.22;5033640;28;20044;-73
2021/09/05 11:59:38;;;;;;;10.95;8.23;;;;;;;28.05;49.07;100720.69;5032961;28;20091;-72
2021/09/05 12:02:31;;;;;;;9.40;7.63;;;;;;;28.22;47.83;100710.59;5020448;28;20407;-72
2021/09/05 12:05:15;;;;;;;9.07;7.22;;;;;;;28.38;48.73;100710.63;5019000;28;20099;-73
2021/09/05 12:07:59;;;;;;;8.70;7.28;;;;;;;28.54;47.76;100709.78;5018832;28;20163;-74
2021/09/05 12:10:46;;;;;;;9.38;7.65;;;;;;;28.69;46.18;100712.78;5018769;28;20067;-72
2021/09/05 12:13:46;;;;;;;8.57;7.47;;;;;;;28.75;43.57;100714.50;5032204;28;20059;-69
2021/09/05 12:16:30;;;;;;;7.60;6.90;;;;;;;28.82;44.51;100712.41;5018470;28;20527;-70
2021/09/05 12:19:15;;;;;;;9.13;6.95;;;;;;;28.78;43.86;100708.53;5018588;28;20056;-68
2021/09/05 12:21:58;;;;;;;;;;;;;;;28.87;44.58;100715.22;5018839;28;20099;-68
2021/09/05 12:24:56;;;;;;;9.02;7.10;;;;;;;28.98;44.66;100706.09;5032197;28;19920;-68
2021/09/05 12:27:40;;;;;;;7.80;6.95;;;;;;;28.98;44.98;100697.88;5032742;28;20044;-69
2021/09/05 12:30:24;;;;;;;;;;;;;;;29.00;43.56;100701.19;5018462;28;20477;-70
2021/09/05 12:33:14;;;;;;;7.32;6.50;;;;;;;29.13;42.79;100709.03;5032002;28;19967;-69